Aeroporto :
LOGIN :

Iscrizione | Disclaimer

   EN    FR    IT 

 










Sommario :    VFR   VFR Marginale   IFR   IFR Intensivo   IFR Molto Intensivo
Visibilità : 
Base nubi : 
>= 8 km
>= 3000ft
5 / 8 km
1000 / 3000 ft
1500m / 5 km
500 / 1000 ft
800 / 1500m
200 / 500 ft
< 800m
< 200 ft
Simboli :   Temporali  Nebbia  Neve Forte  Precipitazioni Forti  Vento > 20 kt
SIGMETs :   Varie  Temporali  Ghiacco  Turbolenza  Onda orograficha  Ceneri Vulcaniche







- Altitudine del aeroporto : 29 ft
- Codice IATA : SVG


ENZV - Sola

ULTIMO METAR :
  • 211120Z 28013KT 2000 -DZ BR OVC002 08/07 Q1023 TEMPO 1200 DZ BR

METARs OBSOLETI :
  • 211050Z 27014KT 2000 -DZ BR OVC002 07/07 Q1022 TEMPO 1200 DZ BR
  • 210950Z 25012KT 4000 -DZ BR OVC002 07/07 Q1021 TEMPO 2000 DZ BR
  • 210920Z 25011KT 4500 -DZ BR BKN003 07/06 Q1021 TEMPO 2000 DZ BR
  • 210850Z 25012KT 6000 -DZ FEW004 BKN007 07/07 Q1021 TEMPO 2000 DZ BR BKN004
  • 210820Z 24012KT 7000 -RA SCT008 BKN012 08/07 Q1020 TEMPO 2000 DZ BR BKN004

TAF AMD TAF ENZV
Valido dal 21 a 07 ore il 22 a 06 ore UTC


2107/2206 24012KT 9999 SCT007 BKN015
TEMPO 2107/2111 2000 DZ BR BKN004
BECMG 2109/2112 32015KT
BECMG 2118/2121 VRB05KT
BECMG 2203/2206 16012KT
Nessun NOTAM noto per questo aeroporto.
6 SIGMETs conosciuti per la FIR Norway (ENOR) :
 
Cancellazione del SIGMET A0
ENOS SIGMET A05 VALID 211106/211200 ENMI
ENOR NORWAY FIR CNL SIGMET A03 210800/211200=
Forte onda orograficha
ENOS SIGMET A04 VALID 211105/211500 ENMI
ENOR NORWAY FIR SEV MTW FCST WI N5845 E00730 - N6200 E00730 - N6200 E01100 - N5900 E00900 - N5845 E00730 SFC/FL380 STNR WKN=
Forte onda orograficha
ENOS SIGMET A03 VALID 210800/211200 ENMI
ENOR NORWAY FIR SEV MTW FCST WI N5845 E00730 - N6200 E00730 - N6200 E01030 - N5900 E00900 - N5845 E00730 SFC/FL260 STNR NC=
Forte onda orograficha
ENBD SIGMET D03 VALID 211100/211500 ENVN
ENOR NORWAY FIR SEV MTW FCST WI N6500 E01125 - N6740 E01155 - N6930 E01600 - N6815 E01820 - N6500 E01430 - N6500 E01125 SFC/FL400 MOV NNE 20KT NC=
Forte onda orograficha
ENBD SIGMET C05 VALID 211120/211500 ENVV
ENOR NORWAY FIR SEV MTW FCST WI N6200 E00730 - N6300 E01200 - N6200 E01100 - N6200 E00730 SFC/FL380 STNR WKN=
Turbolenza severa
ENBD SIGMET C04 VALID 210800/211200 ENVV
ENOR NORWAY FIR SEV TURB FCST WI N6400 E00945 - N6500 E01130 - N6500 E01415 - N6400 E01400 - N6330 E01200 - N6400 E00945 SFC/FL070 STNR WKN=



MetMap, La meteo Aeronautica in un colpo d'occhio ! - Copyright ORBIFLY Dicembre 2007 - Disclaimer

ORBIFLY MET'MAP TEAM :

Programmazione e sviluppo : Alexandra Zaïnal
Concezione e sviluppo : Baudouin d'Aumeries
Co-Programmazione e sviluppo : Marc-Olivier Méhu
Supporto tecnico e logistico : Manuel Goepfert
Aiuto per la traduzione : Arnaldo La Scala

Contatto : metmap@orbifly.com




FONTI E CREDITI :

   NOAA